createdAt,value
2018-09-27T00:01:00.273Z,17.69
2018-09-27T00:03:29.414Z,17.57
2018-09-27T00:05:58.406Z,17.48
2018-09-27T00:08:27.421Z,17.57
2018-09-27T00:10:56.404Z,17.68
2018-09-27T00:13:25.390Z,17.35
2018-09-27T00:15:54.387Z,17.27
2018-09-27T00:18:24.132Z,17.38
2018-09-27T00:20:53.317Z,17.26
2018-09-27T00:23:22.467Z,17.34
2018-09-27T00:25:51.645Z,17.75
2018-09-27T00:28:20.601Z,17.58
2018-09-27T00:30:49.697Z,17.62
2018-09-27T00:33:18.696Z,17.67
2018-09-27T00:35:47.685Z,17.35
2018-09-27T00:38:16.934Z,17.82
2018-09-27T00:40:46.086Z,17.62
2018-09-27T00:43:15.085Z,17.58
2018-09-27T00:45:44.701Z,17.09
2018-09-27T00:48:15.645Z,17.25
2018-09-27T00:50:45.038Z,16.79
2018-09-27T00:53:14.050Z,16.97
2018-09-27T00:55:43.078Z,16.84
2018-09-27T00:58:12.082Z,17.20
2018-09-27T01:00:41.037Z,16.73
2018-09-27T01:03:10.021Z,17.28
2018-09-27T01:05:39.183Z,16.73
2018-09-27T01:08:08.394Z,17.08
2018-09-27T01:10:37.442Z,16.92
2018-09-27T01:13:06.446Z,17.31
2018-09-27T01:15:35.526Z,17.15
2018-09-27T01:18:04.484Z,16.50
2018-09-27T01:20:33.430Z,16.26
2018-09-27T01:23:02.395Z,16.42
2018-09-27T01:25:31.375Z,17.10
2018-09-27T01:28:00.357Z,17.10
2018-09-27T01:30:29.302Z,17.48
2018-09-27T01:32:58.287Z,17.68
2018-09-27T01:35:27.262Z,17.51
2018-09-27T01:37:56.232Z,17.39
2018-09-27T01:40:25.231Z,17.52
2018-09-27T01:42:54.388Z,17.68
2018-09-27T01:45:23.342Z,17.43
2018-09-27T01:47:52.308Z,17.07
2018-09-27T01:50:21.255Z,17.51
2018-09-27T01:52:50.216Z,17.42
2018-09-27T01:55:19.145Z,16.97
2018-09-27T01:57:48.122Z,16.57
2018-09-27T02:00:17.282Z,16.63
2018-09-27T02:02:46.255Z,16.89
2018-09-27T02:05:15.224Z,16.60
2018-09-27T02:07:44.178Z,17.58
2018-09-27T02:10:13.191Z,17.80
2018-09-27T02:12:42.200Z,17.48
2018-09-27T02:15:11.385Z,17.75
2018-09-27T02:17:40.344Z,18.07
2018-09-27T02:20:09.285Z,17.90
2018-09-27T02:22:38.398Z,17.38
2018-09-27T02:25:07.917Z,17.54
2018-09-27T02:27:36.856Z,17.42
2018-09-27T02:30:05.846Z,17.32
2018-09-27T02:32:35.055Z,17.74
2018-09-27T02:35:04.155Z,17.71
2018-09-27T02:37:33.137Z,17.66
2018-09-27T02:40:02.105Z,17.64
2018-09-27T02:42:31.037Z,16.78
2018-09-27T02:45:00.054Z,17.14
2018-09-27T02:47:28.970Z,17.79
2018-09-27T02:49:57.935Z,17.81
2018-09-27T02:52:26.873Z,17.79
2018-09-27T02:54:55.881Z,17.83
2018-09-27T02:57:24.834Z,17.85
2018-09-27T02:59:53.825Z,17.95
2018-09-27T03:02:23.013Z,17.81
2018-09-27T03:04:52.121Z,17.56
2018-09-27T03:07:21.209Z,17.81
2018-09-27T03:09:50.470Z,17.76
2018-09-27T03:12:19.422Z,17.55
2018-09-27T03:14:48.369Z,17.59
2018-09-27T03:17:17.329Z,17.75
2018-09-27T03:19:46.292Z,17.99
2018-09-27T03:22:15.270Z,18.02
2018-09-27T03:24:44.289Z,17.67
2018-09-27T03:27:13.530Z,17.75
2018-09-27T03:29:42.699Z,17.69
2018-09-27T03:32:12.430Z,17.58
2018-09-27T03:34:41.703Z,17.37
2018-09-27T03:37:10.743Z,17.48
2018-09-27T03:39:39.731Z,17.62
2018-09-27T03:42:09.434Z,17.42
2018-09-27T03:44:38.393Z,17.77
2018-09-27T03:47:07.483Z,17.80
2018-09-27T03:49:36.437Z,17.37
2018-09-27T03:52:05.441Z,17.56
2018-09-27T03:54:34.439Z,17.76
2018-09-27T03:57:03.409Z,17.84
2018-09-27T03:59:32.653Z,17.83
2018-09-27T04:02:01.889Z,17.92
2018-09-27T04:04:30.865Z,17.40
2018-09-27T04:06:59.854Z,17.42
2018-09-27T04:09:29.244Z,17.49
2018-09-27T04:11:58.210Z,17.58
2018-09-27T04:14:27.186Z,17.53
2018-09-27T04:16:56.268Z,17.87
2018-09-27T04:19:25.209Z,17.91
2018-09-27T04:21:54.521Z,16.85
2018-09-27T04:24:23.443Z,17.25
2018-09-27T04:26:52.709Z,16.41
2018-09-27T04:29:21.899Z,17.43
2018-09-27T04:31:50.872Z,17.37
2018-09-27T04:34:20.057Z,17.82
2018-09-27T04:36:49.000Z,17.90
2018-09-27T04:39:18.166Z,17.78
2018-09-27T04:41:47.142Z,17.61
2018-09-27T04:44:16.306Z,18.04
2018-09-27T04:46:45.519Z,17.81
2018-09-27T04:49:14.454Z,17.68
2018-09-27T04:51:43.413Z,17.90
2018-09-27T04:54:12.457Z,17.48
2018-09-27T04:56:41.427Z,17.00
2018-09-27T04:59:10.432Z,17.29
2018-09-27T05:01:39.395Z,17.70
2018-09-27T05:04:08.665Z,17.80
2018-09-27T05:06:37.679Z,18.03
2018-09-27T05:09:07.942Z,17.60
2018-09-27T05:11:37.223Z,17.81
2018-09-27T05:14:06.326Z,18.01
2018-09-27T05:16:35.298Z,17.80
2018-09-27T05:19:08.441Z,17.84
2018-09-27T05:21:37.447Z,17.64
2018-09-27T05:24:06.493Z,18.03
2018-09-27T05:26:35.905Z,18.02
2018-09-27T05:29:05.290Z,17.97
2018-09-27T05:31:34.662Z,17.58
2018-09-27T05:34:03.605Z,17.78
2018-09-27T05:36:32.789Z,17.80
2018-09-27T05:39:01.834Z,17.61
2018-09-27T05:41:30.937Z,17.65
2018-09-27T05:43:59.896Z,17.78
2018-09-27T05:46:28.845Z,17.72
2018-09-27T05:48:57.785Z,17.74
2018-09-27T05:51:26.761Z,17.59
2018-09-27T05:53:55.728Z,17.83
2018-09-27T05:56:24.740Z,17.89
2018-09-27T05:58:53.740Z,17.66
2018-09-27T06:01:22.721Z,17.42
2018-09-27T06:03:51.755Z,17.83
2018-09-27T06:06:20.713Z,17.87
2018-09-27T06:08:49.719Z,18.21
2018-09-27T06:11:18.817Z,17.95
2018-09-27T06:13:47.769Z,17.81
2018-09-27T06:16:17.112Z,17.33
2018-09-27T06:18:46.167Z,17.55
2018-09-27T06:21:15.172Z,17.63
2018-09-27T06:23:44.572Z,17.61
2018-09-27T06:26:13.807Z,17.81
2018-09-27T06:28:42.797Z,17.94
2018-09-27T06:31:12.288Z,16.81
2018-09-27T06:33:41.271Z,17.62
2018-09-27T06:36:10.567Z,16.45
2018-09-27T06:38:39.671Z,16.70
2018-09-27T06:41:08.591Z,17.15
2018-09-27T06:43:38.022Z,18.03
2018-09-27T06:46:07.286Z,18.17
2018-09-27T06:48:36.554Z,17.23
2018-09-27T06:51:05.522Z,17.54
2018-09-27T06:53:34.525Z,16.91
2018-09-27T06:56:03.722Z,17.73
2018-09-27T06:58:32.669Z,18.05
2018-09-27T07:01:01.901Z,18.49
2018-09-27T07:03:31.247Z,17.67
2018-09-27T07:06:00.741Z,17.54
2018-09-27T07:08:29.864Z,17.36
2018-09-27T07:10:59.047Z,17.46
2018-09-27T07:13:28.021Z,16.97
2018-09-27T07:15:57.009Z,17.67
2018-09-27T07:18:26.026Z,17.09
2018-09-27T07:20:55.034Z,17.01
2018-09-27T07:23:23.999Z,18.16
2018-09-27T07:25:53.197Z,17.95
2018-09-27T07:28:22.394Z,18.32
2018-09-27T07:30:51.382Z,17.85
2018-09-27T07:33:20.756Z,18.00
2018-09-27T07:35:49.713Z,17.95
2018-09-27T07:38:18.710Z,17.38
2018-09-27T07:40:47.689Z,17.35
2018-09-27T07:43:16.686Z,17.63
2018-09-27T07:45:45.827Z,18.17
2018-09-27T07:48:15.119Z,17.53
2018-09-27T07:50:44.171Z,17.87
2018-09-27T07:53:13.162Z,17.19
2018-09-27T07:55:42.126Z,18.00
2018-09-27T07:58:11.106Z,18.77
2018-09-27T08:00:40.076Z,18.46
2018-09-27T08:03:09.467Z,17.87
2018-09-27T08:05:38.801Z,18.84
2018-09-27T08:08:08.279Z,17.88
2018-09-27T08:10:37.318Z,17.88
2018-09-27T08:13:06.306Z,17.58
2018-09-27T08:15:35.722Z,17.78
2018-09-27T08:18:04.966Z,17.53
2018-09-27T08:20:34.001Z,17.16
2018-09-27T08:23:02.966Z,17.29
2018-09-27T08:25:32.039Z,17.79
2018-09-27T08:28:01.245Z,18.28
2018-09-27T08:30:30.238Z,18.77
2018-09-27T08:32:59.428Z,18.55
2018-09-27T08:35:28.737Z,17.82
2018-09-27T08:37:58.027Z,17.55
2018-09-27T08:40:27.258Z,17.52
2018-09-27T08:42:56.770Z,17.63
2018-09-27T08:45:25.949Z,17.75
2018-09-27T08:47:54.819Z,17.75
2018-09-27T08:50:23.955Z,18.13
2018-09-27T08:52:53.126Z,18.55
2018-09-27T08:55:22.199Z,18.29
2018-09-27T08:57:51.153Z,19.13
2018-09-27T09:00:20.304Z,19.69
2018-09-27T09:02:49.421Z,18.61
2018-09-27T09:05:18.446Z,19.44
2018-09-27T09:07:47.797Z,19.63
2018-09-27T09:10:16.820Z,19.08
2018-09-27T09:12:46.038Z,19.17
2018-09-27T09:15:15.033Z,19.41
2018-09-27T09:17:44.242Z,19.78
2018-09-27T09:20:13.369Z,19.22
2018-09-27T09:22:42.347Z,19.72
2018-09-27T09:25:11.344Z,18.79
2018-09-27T09:27:40.419Z,18.99
2018-09-27T09:30:10.481Z,18.94
2018-09-27T09:32:39.603Z,19.21
2018-09-27T09:35:08.582Z,19.38
2018-09-27T09:37:37.704Z,20.27
2018-09-27T09:40:06.920Z,20.15
2018-09-27T09:42:36.453Z,20.13
2018-09-27T09:45:05.709Z,19.25
2018-09-27T09:47:34.689Z,19.02
2018-09-27T09:50:03.777Z,19.11
2018-09-27T09:52:32.708Z,19.69
2018-09-27T09:55:01.769Z,19.69
2018-09-27T09:57:31.022Z,20.17
2018-09-27T10:00:00.123Z,20.12
2018-09-27T10:02:29.238Z,20.36
2018-09-27T10:04:58.778Z,20.37
2018-09-27T10:07:27.768Z,20.73
2018-09-27T10:09:56.747Z,20.21
2018-09-27T10:12:25.959Z,20.51
2018-09-27T10:14:54.955Z,20.72
2018-09-27T10:17:24.282Z,20.05
2018-09-27T10:19:53.282Z,19.75
2018-09-27T10:22:22.273Z,19.56
2018-09-27T10:24:51.901Z,19.47
2018-09-27T10:27:20.907Z,19.39
2018-09-27T10:29:49.871Z,19.37
2018-09-27T10:32:18.817Z,19.38
2018-09-27T10:34:47.852Z,19.67
2018-09-27T10:37:16.839Z,19.57
2018-09-27T10:39:45.907Z,19.50
2018-09-27T10:42:14.849Z,19.52
2018-09-27T10:44:43.847Z,19.71
2018-09-27T10:47:16.205Z,19.89
2018-09-27T10:49:46.279Z,20.17
2018-09-27T10:52:18.346Z,20.05
2018-09-27T10:54:48.128Z,20.01
2018-09-27T10:57:17.659Z,19.91
2018-09-27T10:59:47.490Z,19.91
2018-09-27T11:02:17.030Z,19.97
2018-09-27T11:04:47.024Z,20.09
2018-09-27T11:07:16.250Z,20.24
2018-09-27T11:09:45.331Z,20.23
2018-09-27T11:12:14.330Z,20.21
2018-09-27T11:14:43.569Z,20.23
2018-09-27T11:17:12.527Z,20.24
2018-09-27T11:19:41.498Z,20.30
2018-09-27T11:22:10.482Z,20.88
2018-09-27T11:24:39.442Z,20.47
2018-09-27T11:27:08.681Z,20.39
2018-09-27T11:29:43.037Z,20.40
2018-09-27T11:32:17.371Z,20.41
2018-09-27T11:34:46.538Z,20.29
2018-09-27T11:37:15.936Z,20.48
2018-09-27T11:39:45.198Z,20.37
2018-09-27T11:42:14.196Z,20.49
2018-09-27T11:44:43.191Z,20.56
2018-09-27T11:47:12.177Z,20.55
2018-09-27T11:49:41.628Z,20.63
2018-09-27T11:52:10.619Z,20.78
2018-09-27T11:54:39.960Z,20.64
2018-09-27T11:57:09.106Z,20.53
2018-09-27T11:59:38.079Z,20.52
2018-09-27T12:02:07.465Z,20.69
2018-09-27T12:04:36.456Z,20.90
2018-09-27T12:07:05.456Z,20.91
2018-09-27T12:09:34.727Z,20.90
2018-09-27T12:12:03.766Z,20.95
2018-09-27T12:14:32.735Z,21.10
2018-09-27T12:17:02.025Z,21.36
2018-09-27T12:19:31.258Z,21.33
2018-09-27T12:22:00.217Z,20.97
2018-09-27T12:24:29.531Z,21.06
2018-09-27T12:26:58.538Z,21.53
2018-09-27T12:29:27.902Z,21.42
2018-09-27T12:31:56.924Z,21.82
2018-09-27T12:34:26.335Z,21.49
2018-09-27T12:36:55.373Z,21.22
2018-09-27T12:39:24.328Z,21.40
2018-09-27T12:41:53.677Z,21.99
2018-09-27T12:44:22.543Z,21.72
2018-09-27T12:46:51.802Z,22.12
2018-09-27T12:49:20.981Z,22.15
2018-09-27T12:51:50.771Z,22.00
2018-09-27T12:54:19.677Z,22.41
2018-09-27T12:56:48.872Z,22.49
2018-09-27T12:59:18.102Z,22.61
2018-09-27T13:01:47.376Z,22.70
2018-09-27T13:04:16.266Z,22.70
2018-09-27T13:06:45.649Z,22.48
2018-09-27T13:09:15.069Z,22.17
2018-09-27T13:11:43.921Z,21.98
2018-09-27T13:14:13.170Z,22.18
2018-09-27T13:16:42.178Z,21.86
2018-09-27T13:19:11.407Z,21.99
2018-09-27T13:21:40.370Z,21.54
2018-09-27T13:24:09.362Z,21.70
2018-09-27T13:26:38.375Z,22.01
2018-09-27T13:29:07.329Z,21.44
2018-09-27T13:31:36.333Z,22.11
2018-09-27T13:34:05.377Z,21.59
2018-09-27T13:36:34.356Z,22.32
2018-09-27T13:39:03.382Z,22.24
2018-09-27T13:41:32.375Z,22.01
2018-09-27T13:44:08.133Z,22.53
2018-09-27T13:46:37.523Z,22.70
2018-09-27T13:49:06.551Z,22.74
2018-09-27T13:51:35.499Z,22.60
2018-09-27T13:54:04.692Z,22.61
2018-09-27T13:56:33.859Z,22.49
2018-09-27T13:59:02.853Z,22.90
2018-09-27T14:01:31.824Z,22.98
2018-09-27T14:04:00.797Z,22.51
2018-09-27T14:06:30.002Z,22.48
2018-09-27T14:08:58.969Z,22.43
2018-09-27T14:11:27.925Z,22.67
2018-09-27T14:13:56.887Z,22.20
2018-09-27T14:16:25.851Z,22.76
2018-09-27T14:18:54.922Z,22.80
2018-09-27T14:21:23.880Z,22.64
2018-09-27T14:23:52.856Z,22.81
2018-09-27T14:26:21.882Z,22.75
2018-09-27T14:28:51.107Z,22.64
2018-09-27T14:31:20.289Z,22.60
2018-09-27T14:33:49.286Z,22.90
2018-09-27T14:36:18.400Z,22.97
2018-09-27T14:38:47.527Z,22.77
2018-09-27T14:41:16.549Z,22.93
2018-09-27T14:43:45.551Z,22.86
2018-09-27T14:46:14.570Z,22.63
2018-09-27T14:48:43.563Z,22.64
2018-09-27T14:51:12.551Z,22.82
2018-09-27T14:53:42.157Z,23.03
2018-09-27T14:56:11.244Z,22.85
2018-09-27T14:58:40.260Z,22.70
2018-09-27T15:01:09.719Z,22.54
2018-09-27T15:03:38.733Z,22.85
2018-09-27T15:06:07.760Z,23.15
2018-09-27T15:08:37.070Z,22.52
2018-09-27T15:11:06.246Z,22.91
2018-09-27T15:13:35.293Z,23.07
2018-09-27T15:16:04.451Z,22.72
2018-09-27T15:18:33.524Z,22.82
2018-09-27T15:21:02.742Z,22.73
2018-09-27T15:23:31.792Z,22.59
2018-09-27T15:26:00.713Z,22.67
2018-09-27T15:28:29.698Z,22.62
2018-09-27T15:30:59.513Z,22.91
2018-09-27T15:33:28.725Z,23.12
2018-09-27T15:35:57.689Z,23.00
2018-09-27T15:38:26.643Z,23.02
2018-09-27T15:40:55.822Z,22.93
2018-09-27T15:43:25.245Z,22.59
2018-09-27T15:45:54.325Z,22.72
2018-09-27T15:48:23.302Z,22.87
2018-09-27T15:50:52.298Z,22.70
2018-09-27T15:53:21.431Z,22.44
2018-09-27T15:55:50.398Z,22.60
2018-09-27T15:58:19.750Z,22.82
2018-09-27T16:00:48.739Z,22.93
2018-09-27T16:03:17.998Z,23.00
2018-09-27T16:05:47.266Z,22.98
2018-09-27T16:08:16.237Z,23.09
2018-09-27T16:10:45.359Z,22.75
2018-09-27T16:13:14.410Z,22.48
2018-09-27T16:15:43.600Z,22.71
2018-09-27T16:18:12.555Z,22.86
2018-09-27T16:20:41.555Z,23.00
2018-09-27T16:23:10.578Z,22.97
2018-09-27T16:25:39.841Z,22.70
2018-09-27T16:28:08.864Z,22.78
2018-09-27T16:30:37.842Z,22.73
2018-09-27T16:33:07.122Z,22.88
2018-09-27T16:35:36.193Z,22.64
2018-09-27T16:38:05.141Z,22.79
2018-09-27T16:40:35.489Z,22.70
2018-09-27T16:43:04.500Z,22.53
2018-09-27T16:45:33.731Z,22.68
2018-09-27T16:48:02.730Z,22.48
2018-09-27T16:50:31.818Z,22.48
2018-09-27T16:53:00.807Z,22.63
2018-09-27T16:55:30.092Z,22.53
2018-09-27T16:57:59.073Z,22.68
2018-09-27T17:00:28.273Z,22.59
2018-09-27T17:02:57.274Z,22.54
2018-09-27T17:05:26.331Z,22.59
2018-09-27T17:07:56.751Z,22.58
2018-09-27T17:10:26.552Z,22.52
2018-09-27T17:12:56.220Z,22.50
2018-09-27T17:15:26.932Z,22.44
2018-09-27T17:17:57.412Z,22.44
2018-09-27T17:20:26.784Z,22.35
2018-09-27T17:22:58.453Z,22.26
2018-09-27T17:25:28.069Z,22.30
2018-09-27T17:27:58.323Z,22.29
2018-09-27T17:30:28.806Z,22.20
2018-09-27T17:32:58.554Z,22.21
2018-09-27T17:35:27.569Z,22.13
2018-09-27T17:37:56.650Z,22.17
2018-09-27T17:40:26.983Z,22.20
2018-09-27T17:42:57.507Z,22.03
2018-09-27T17:45:28.063Z,22.14
2018-09-27T17:47:58.237Z,22.13
2018-09-27T17:50:27.335Z,22.02
2018-09-27T17:52:56.714Z,22.09
2018-09-27T17:55:25.691Z,21.85
2018-09-27T17:57:55.472Z,21.83
2018-09-27T18:00:25.728Z,21.80
2018-09-27T18:02:55.332Z,21.65
2018-09-27T18:05:24.376Z,21.94
2018-09-27T18:07:54.343Z,21.97
2018-09-27T18:10:23.420Z,21.92
2018-09-27T18:12:52.458Z,21.80
2018-09-27T18:15:23.293Z,21.78
2018-09-27T18:17:53.590Z,21.71
2018-09-27T18:20:24.128Z,21.81
2018-09-27T18:22:54.177Z,21.71
2018-09-27T18:25:24.566Z,21.52
2018-09-27T18:27:54.867Z,21.76
2018-09-27T18:30:25.084Z,21.72
2018-09-27T18:32:54.625Z,21.72
2018-09-27T18:35:24.186Z,21.62
2018-09-27T18:37:54.046Z,21.80
2018-09-27T18:40:24.188Z,21.35
2018-09-27T18:42:53.849Z,21.78
2018-09-27T18:45:23.033Z,21.39
2018-09-27T18:47:53.453Z,21.64
2018-09-27T18:50:23.893Z,21.58
2018-09-27T18:52:53.594Z,21.52
2018-09-27T18:55:22.641Z,21.52
2018-09-27T18:57:52.784Z,21.41
2018-09-27T19:00:23.034Z,21.31
2018-09-27T19:02:52.081Z,21.46
2018-09-27T19:05:22.903Z,21.36
2018-09-27T19:07:52.801Z,21.35
2018-09-27T19:10:24.178Z,21.13
2018-09-27T19:12:53.662Z,21.48
2018-09-27T19:15:23.845Z,21.48
2018-09-27T19:17:54.075Z,21.49
2018-09-27T19:20:23.241Z,21.28
2018-09-27T19:22:52.776Z,21.39
2018-09-27T19:25:21.950Z,21.28
2018-09-27T19:27:50.957Z,21.16
2018-09-27T19:30:20.669Z,21.22
2018-09-27T19:32:50.871Z,21.28
2018-09-27T19:35:20.722Z,21.21
2018-09-27T19:37:50.021Z,21.18
2018-09-27T19:40:19.304Z,21.28
2018-09-27T19:42:48.936Z,21.28
2018-09-27T19:45:18.673Z,21.22
2018-09-27T19:47:48.270Z,21.26
2018-09-27T19:50:17.587Z,21.18
2018-09-27T19:52:46.641Z,21.10
2018-09-27T19:55:16.217Z,21.09
2018-09-27T19:57:45.667Z,21.14
2018-09-27T20:00:15.236Z,21.17
2018-09-27T20:02:44.390Z,21.04
2018-09-27T20:05:13.431Z,21.03
2018-09-27T20:07:42.743Z,20.96
2018-09-27T20:10:12.120Z,20.78
2018-09-27T20:12:41.420Z,20.84
2018-09-27T20:15:10.689Z,20.85
2018-09-27T20:17:40.154Z,20.95
2018-09-27T20:20:09.971Z,20.89
2018-09-27T20:22:39.940Z,20.87
2018-09-27T20:25:09.885Z,20.83
2018-09-27T20:27:39.845Z,20.78
2018-09-27T20:30:09.831Z,20.78
2018-09-27T20:32:39.840Z,20.75
2018-09-27T20:35:10.649Z,20.75
2018-09-27T20:37:40.484Z,20.70
2018-09-27T20:40:09.785Z,20.60
2018-09-27T20:42:39.275Z,20.55
2018-09-27T20:45:09.295Z,20.60
2018-09-27T20:47:38.961Z,20.57
2018-09-27T20:50:09.010Z,20.56
2018-09-27T20:52:38.270Z,20.53
2018-09-27T20:55:08.289Z,20.36
2018-09-27T20:57:38.905Z,20.44
2018-09-27T21:00:08.695Z,20.41
2018-09-27T21:02:37.886Z,20.38
2018-09-27T21:05:07.085Z,20.34
2018-09-27T21:17:06.717Z,18.60
2018-09-27T21:19:35.711Z,18.88
2018-09-27T21:22:04.697Z,19.51
2018-09-27T21:24:33.749Z,19.53
2018-09-27T21:27:02.789Z,19.82
2018-09-27T21:29:31.739Z,19.78
2018-09-27T21:32:00.730Z,19.88
2018-09-27T21:34:29.753Z,19.82
2018-09-27T21:36:58.774Z,19.83
2018-09-27T21:39:27.754Z,19.77
2018-09-27T21:41:57.180Z,19.33
2018-09-27T21:44:26.163Z,19.40
2018-09-27T21:46:55.255Z,19.77
2018-09-27T21:49:24.331Z,19.57
2018-09-27T21:51:53.324Z,19.73
2018-09-27T21:54:22.443Z,19.57
2018-09-27T21:56:51.433Z,19.56
2018-09-27T21:59:20.621Z,19.58
2018-09-27T22:01:49.723Z,19.18
2018-09-27T22:04:18.734Z,19.14
2018-09-27T22:06:49.176Z,19.11
2018-09-27T22:09:18.526Z,19.23
2018-09-27T22:11:51.175Z,19.25
2018-09-27T22:14:20.923Z,18.82
2018-09-27T22:16:49.984Z,19.02
2018-09-27T22:19:19.173Z,18.78
2018-09-27T22:21:48.247Z,18.80
2018-09-27T22:24:17.442Z,18.42
2018-09-27T22:26:46.409Z,18.66
2018-09-27T22:29:15.604Z,18.46
2018-09-27T22:31:44.852Z,18.78
2018-09-27T22:34:13.869Z,18.82
2018-09-27T22:36:43.113Z,18.80
2018-09-27T22:39:12.239Z,19.04
2018-09-27T22:41:41.412Z,18.83
2018-09-27T22:44:10.782Z,19.11
2018-09-27T22:46:40.027Z,19.10
2018-09-27T22:49:09.105Z,18.96
2018-09-27T22:51:38.137Z,18.51
2018-09-27T22:54:07.323Z,18.73
2018-09-27T22:56:36.648Z,18.46
2018-09-27T22:59:05.843Z,18.82
2018-09-27T23:01:34.867Z,18.76
2018-09-27T23:04:03.929Z,18.66
2018-09-27T23:06:32.969Z,18.81
2018-09-27T23:09:02.150Z,18.58
2018-09-27T23:11:32.736Z,18.81
2018-09-27T23:14:03.078Z,18.86
2018-09-27T23:16:32.052Z,18.89
2018-09-27T23:19:01.134Z,18.80
2018-09-27T23:21:30.159Z,18.69
2018-09-27T23:23:59.660Z,18.58
2018-09-27T23:26:29.080Z,18.53
2018-09-27T23:28:58.240Z,18.54
2018-09-27T23:31:27.813Z,18.20
2018-09-27T23:33:57.113Z,18.39
2018-09-27T23:36:26.115Z,18.40
2018-09-27T23:38:55.209Z,18.40
2018-09-27T23:41:24.653Z,18.51
2018-09-27T23:43:53.614Z,18.51
2018-09-27T23:46:22.926Z,18.45
2018-09-27T23:48:51.906Z,18.24
2018-09-27T23:51:20.878Z,18.42
2018-09-27T23:53:49.848Z,18.21
2018-09-27T23:56:18.971Z,18.43
2018-09-27T23:58:48.168Z,18.41
